Enon, Missouri
Current Conditions -  °F | °C
As of 1:53 PM on Thursday 23 Oct 2014 (Local Time) from KJEF Reporting Station
Overcast Overcast  
Wind Chill: 59°   Ceiling: 6000
Heat Index: 59°   Visibility: 10mi
Dew Point: 46°   Wind: 5mph
Humidity: 62%   Direction: 160°SSE
Pressure: 30.12"   Gusts: NA
Location:  38.487°N, 92.4235°W
Report Text: KJEF 231853Z 16004KT 10SM OVC060 15/08 A3012 RMK AO2 SLP192 T01500078
Loading
Personal Weather Stations






























Interactive Weather Map
Tropical Storm Tracking
New forecast layout! Learn more

10-Day Weather Forecast

Advertisements
Track Severe Weather on mobile